Time;durP1;ratioP1;P1;durP2;ratioP2;P2;SDS_P1;SDS_P2;PMS_P1;PMS_P2;Temp;Humidity;BMP_temperature;BMP_pressure;BME280_temperature;BME280_humidity;BME280_pressure;Samples;Min_cycle;Max_cycle;Signal;HPM_P1;HPM_P2
2023/01/26 00:00:44;;;;;;;241.13;42.42;;;;;;;;;;5096767;28;20054;-74
2023/01/26 00:03:10;;;;;;;285.48;41.88;;;;;;;;;;5101473;28;20036;-74
2023/01/26 00:05:37;;;;;;;244.05;39.40;;;;;;;;;;5102643;27;20040;-73
2023/01/26 00:08:03;;;;;;;267.63;44.83;;;;;;;;;;5101352;28;20046;-74
2023/01/26 00:10:29;;;;;;;277.08;42.80;;;;;;;;;;5102089;28;20093;-74
2023/01/26 00:12:56;;;;;;;276.27;43.45;;;;;;;;;;5103374;28;20085;-74
2023/01/26 00:15:22;;;;;;;259.48;41.33;;;;;;;;;;5102128;28;20047;-74
2023/01/26 00:17:50;;;;;;;294.30;44.25;;;;;;;;;;5102675;28;20055;-74
2023/01/26 00:20:16;;;;;;;270.90;42.90;;;;;;;;;;5095545;28;20051;-74
2023/01/26 00:22:43;;;;;;;308.88;44.33;;;;;;;;;;5100387;28;20027;-74
2023/01/26 00:25:09;;;;;;;327.50;47.15;;;;;;;;;;5098812;28;20051;-74
2023/01/26 00:27:35;;;;;;;327.63;45.33;;;;;;;;;;5092495;28;20055;-74
2023/01/26 00:30:02;;;;;;;270.80;42.50;;;;;;;;;;5099711;28;20039;-74
2023/01/26 00:32:28;;;;;;;267.27;42.08;;;;;;;;;;5101562;28;20084;-74
2023/01/26 00:34:54;;;;;;;229.98;37.70;;;;;;;;;;5100344;27;20409;-74
2023/01/26 00:37:20;;;;;;;238.25;40.42;;;;;;;;;;5087698;28;20043;-74
2023/01/26 00:39:46;;;;;;;212.38;37.08;;;;;;;;;;5101584;28;20066;-74
2023/01/26 00:42:13;;;;;;;258.23;40.33;;;;;;;;;;5096426;28;20123;-74
2023/01/26 00:44:40;;;;;;;316.75;45.53;;;;;;;;;;5086792;28;20110;-74
2023/01/26 00:47:07;;;;;;;253.93;43.80;;;;;;;;;;5096815;28;20120;-75
2023/01/26 00:49:34;;;;;;;313.65;45.22;;;;;;;;;;5097633;28;20055;-75
2023/01/26 00:52:00;;;;;;;356.58;47.45;;;;;;;;;;5099915;28;20048;-75
2023/01/26 00:54:27;;;;;;;367.98;46.42;;;;;;;;;;5099936;27;20054;-74
2023/01/26 00:56:53;;;;;;;359.83;45.08;;;;;;;;;;5097998;28;20072;-75
2023/01/26 00:59:19;;;;;;;304.35;44.58;;;;;;;;;;5098313;28;20403;-74
2023/01/26 01:01:46;;;;;;;356.55;46.55;;;;;;;;;;5092825;28;20046;-74
2023/01/26 01:04:12;;;;;;;333.95;45.60;;;;;;;;;;5098822;27;20040;-74
2023/01/26 01:06:38;;;;;;;378.15;48.50;;;;;;;;;;5099842;28;20978;-74
2023/01/26 01:09:04;;;;;;;361.88;46.42;;;;;;;;;;5096671;28;20138;-75
2023/01/26 01:11:30;;;;;;;323.15;44.92;;;;;;;;;;5098084;28;20036;-74
2023/01/26 01:13:57;;;;;;;262.88;42.17;;;;;;;;;;5099095;28;20048;-74
2023/01/26 01:16:23;;;;;;;275.88;40.83;;;;;;;;;;5097876;28;20155;-74
2023/01/26 01:18:53;;;;;;;271.95;41.15;;;;;;;;;;5098568;27;20094;-74
2023/01/26 01:21:19;;;;;;;266.02;42.78;;;;;;;;;;5090706;28;20051;-74
2023/01/26 01:23:45;;;;;;;253.52;41.80;;;;;;;;;;5096706;28;20059;-74
2023/01/26 01:26:12;;;;;;;226.52;40.97;;;;;;;;;;5092709;28;20487;-74
2023/01/26 01:28:38;;;;;;;250.10;40.47;;;;;;;;;;5088314;28;20494;-74
2023/01/26 01:31:06;;;;;;;240.50;40.67;;;;;;;;;;5087688;28;20055;-74
2023/01/26 01:33:32;;;;;;;220.98;38.55;;;;;;;;;;5089378;28;20083;-74
2023/01/26 01:36:00;;;;;;;233.07;40.38;;;;;;;;;;5091411;28;20075;-74
2023/01/26 01:38:26;;;;;;;238.52;38.75;;;;;;;;;;5096094;28;20127;-74
2023/01/26 01:40:53;;;;;;;259.00;41.53;;;;;;;;;;5095284;28;20035;-75
2023/01/26 01:43:19;;;;;;;258.48;38.53;;;;;;;;;;5098298;27;20078;-74
2023/01/26 01:45:46;;;;;;;285.58;40.85;;;;;;;;;;5078030;28;20407;-74
2023/01/26 01:48:17;;;;;;;252.80;38.40;;;;;;;;;;5100896;27;20062;-74
2023/01/26 01:50:44;;;;;;;252.73;38.47;;;;;;;;;;5097284;27;20762;-74
2023/01/26 01:53:12;;;;;;;241.55;37.97;;;;;;;;;;5094951;28;20048;-74
2023/01/26 01:55:38;;;;;;;246.70;39.47;;;;;;;;;;5092921;28;20368;-74
2023/01/26 01:58:06;;;;;;;228.63;39.78;;;;;;;;;;5080387;28;20043;-74
2023/01/26 02:00:32;;;;;;;231.32;38.30;;;;;;;;;;5094547;28;20410;-75
2023/01/26 02:03:13;;;;;;;226.85;37.33;;;;;;;;;;5101339;28;20095;-74
2023/01/26 02:05:55;;;;;;;277.13;37.08;;;;;;;;;;5095855;28;20035;-74
2023/01/26 02:08:24;;;;;;;259.40;38.30;;;;;;;;;;5097170;28;20058;-74
2023/01/26 02:10:51;;;;;;;248.10;36.65;;;;;;;;;;5091762;28;20463;-75
2023/01/26 02:13:18;;;;;;;213.82;37.17;;;;;;;;;;5073675;28;20082;-75
2023/01/26 02:15:44;;;;;;;183.68;35.95;;;;;;;;;;5078381;28;20043;-75
2023/01/26 02:18:10;;;;;;;199.25;35.15;;;;;;;;;;5092942;28;20043;-75
2023/01/26 02:20:47;;;;;;;236.85;37.88;;;;;;;;;;5083706;28;20036;-74
2023/01/26 02:23:20;;;;;;;250.18;39.22;;;;;;;;;;5096643;28;20130;-75
2023/01/26 02:25:51;;;;;;;190.60;31.13;;;;;;;;;;5103556;28;20071;-74
2023/01/26 02:28:18;;;;;;;233.43;37.58;;;;;;;;;;5095045;28;20055;-74
2023/01/26 02:30:45;;;;;;;251.27;39.03;;;;;;;;;;5078545;28;20062;-74
2023/01/26 02:33:17;;;;;;;266.52;38.03;;;;;;;;;;5097275;28;20915;-75
2023/01/26 02:35:43;;;;;;;266.10;39.17;;;;;;;;;;5077669;28;20051;-74
2023/01/26 02:38:09;;;;;;;268.42;38.58;;;;;;;;;;5082318;28;20142;-74
2023/01/26 02:40:44;;;;;;;276.33;39.53;;;;;;;;;;5090163;28;20101;-75
2023/01/26 02:43:10;;;;;;;262.88;38.42;;;;;;;;;;5094292;28;20055;-75
2023/01/26 02:45:37;;;;;;;261.02;40.45;;;;;;;;;;5099847;28;20039;-74
2023/01/26 02:48:05;;;;;;;225.90;38.67;;;;;;;;;;5100813;28;20046;-75
2023/01/26 02:50:32;;;;;;;262.08;40.03;;;;;;;;;;5091867;28;20055;-75
2023/01/26 02:52:58;;;;;;;274.52;42.03;;;;;;;;;;5101445;28;20036;-75
2023/01/26 02:55:25;;;;;;;257.58;39.95;;;;;;;;;;5101833;28;20479;-74
2023/01/26 02:57:52;;;;;;;242.32;37.70;;;;;;;;;;5092910;28;20312;-75
2023/01/26 03:00:19;;;;;;;270.75;39.55;;;;;;;;;;5091828;28;20056;-75
2023/01/26 03:02:47;;;;;;;270.58;41.33;;;;;;;;;;5102083;28;20032;-74
2023/01/26 03:05:13;;;;;;;262.92;40.53;;;;;;;;;;5077883;28;20066;-74
2023/01/26 03:07:39;;;;;;;293.95;43.65;;;;;;;;;;5097425;28;20044;-75
2023/01/26 03:10:05;;;;;;;285.15;41.53;;;;;;;;;;5100354;28;20043;-74
2023/01/26 03:12:32;;;;;;;292.67;42.58;;;;;;;;;;5100522;28;20054;-75
2023/01/26 03:17:43;;;;;;;313.80;43.63;;;;;;;;;;5098195;28;20718;-75
2023/01/26 03:28:24;;;;;;;321.00;44.03;;;;;;;;;;5099855;28;20067;-75
2023/01/26 03:30:52;;;;;;;336.08;44.08;;;;;;;;;;5101170;28;20050;-75
2023/01/26 03:33:18;;;;;;;289.40;42.13;;;;;;;;;;5090287;28;20120;-75
2023/01/26 03:35:45;;;;;;;345.83;43.70;;;;;;;;;;5093555;28;20064;-74
2023/01/26 03:38:11;;;;;;;310.38;42.22;;;;;;;;;;5094724;28;20475;-75
2023/01/26 03:57:07;;;;;;;298.75;44.50;;;;;;;;;;5097743;28;20040;-74
2023/01/26 03:59:39;;;;;;;319.98;47.33;;;;;;;;;;5091917;28;20051;-74
2023/01/26 04:10:21;;;;;;;373.15;45.88;;;;;;;;;;5096564;28;20051;-74
2023/01/26 04:23:48;;;;;;;297.75;42.47;;;;;;;;;;5098734;28;20051;-74
2023/01/26 04:26:14;;;;;;;271.27;42.08;;;;;;;;;;5098946;28;20407;-74
2023/01/26 04:28:40;;;;;;;262.63;42.58;;;;;;;;;;5092890;28;20047;-74
2023/01/26 04:31:06;;;;;;;190.70;38.22;;;;;;;;;;5098499;28;20054;-74
2023/01/26 04:33:33;;;;;;;187.68;36.53;;;;;;;;;;5096846;28;20050;-74
2023/01/26 04:36:05;;;;;;;214.50;37.03;;;;;;;;;;5097893;28;20117;-74
2023/01/26 04:38:31;;;;;;;194.63;35.20;;;;;;;;;;5092306;28;20043;-74
2023/01/26 04:40:58;;;;;;;187.27;32.75;;;;;;;;;;5099419;28;20043;-75
2023/01/26 04:43:24;;;;;;;149.13;31.30;;;;;;;;;;5086839;28;20090;-74
2023/01/26 04:45:58;;;;;;;285.90;38.08;;;;;;;;;;5090429;28;20491;-74
2023/01/26 04:48:24;;;;;;;142.93;32.88;;;;;;;;;;5098786;28;20055;-74
2023/01/26 04:50:54;;;;;;;203.45;32.35;;;;;;;;;;5089517;27;20479;-74
2023/01/26 04:53:20;;;;;;;212.90;30.30;;;;;;;;;;5098736;28;20051;-74
2023/01/26 04:55:46;;;;;;;157.80;27.80;;;;;;;;;;5094693;28;20055;-75
2023/01/26 04:58:12;;;;;;;175.57;26.02;;;;;;;;;;5089548;28;20079;-74
2023/01/26 05:00:39;;;;;;;117.65;21.20;;;;;;;;;;5096844;28;20494;-74
2023/01/26 05:03:05;;;;;;;168.73;22.42;;;;;;;;;;5095362;27;20119;-75
2023/01/26 05:05:35;;;;;;;115.90;19.98;;;;;;;;;;5091405;28;20054;-74
2023/01/26 05:08:01;;;;;;;104.38;16.05;;;;;;;;;;5098398;27;20031;-74
2023/01/26 05:10:28;;;;;;;94.15;11.70;;;;;;;;;;5101761;27;20036;-74
2023/01/26 05:12:54;;;;;;;73.55;8.13;;;;;;;;;;5087471;28;20510;-74
2023/01/26 05:15:20;;;;;;;67.93;6.95;;;;;;;;;;5097198;28;20400;-74
2023/01/26 05:17:46;;;;;;;59.90;7.20;;;;;;;;;;5097972;28;20135;-74
2023/01/26 05:20:12;;;;;;;70.97;6.53;;;;;;;;;;5095528;28;20085;-73
2023/01/26 05:22:38;;;;;;;61.47;6.57;;;;;;;;;;5096450;28;20043;-74
2023/01/26 05:25:05;;;;;;;74.93;10.75;;;;;;;;;;5109322;27;20082;-74
2023/01/26 05:27:31;;;;;;;66.05;6.82;;;;;;;;;;5096579;28;21469;-74
2023/01/26 05:29:59;;;;;;;63.22;7.40;;;;;;;;;;5093704;28;20047;-74
2023/01/26 05:32:26;;;;;;;79.10;7.97;;;;;;;;;;5095537;28;20075;-74
2023/01/26 05:34:52;;;;;;;64.47;6.93;;;;;;;;;;5090126;28;20471;-73
2023/01/26 05:37:18;;;;;;;66.18;8.77;;;;;;;;;;5089333;27;20052;-74
2023/01/26 05:39:45;;;;;;;57.88;7.10;;;;;;;;;;5096167;28;20090;-74
2023/01/26 05:42:12;;;;;;;71.13;9.82;;;;;;;;;;5096792;28;20449;-75
2023/01/26 05:44:38;;;;;;;54.75;6.30;;;;;;;;;;5094911;27;20064;-77
2023/01/26 05:47:05;;;;;;;57.92;5.90;;;;;;;;;;5102875;28;20164;-76
2023/01/26 05:49:31;;;;;;;54.53;6.90;;;;;;;;;;5099670;28;20096;-76
2023/01/26 05:51:58;;;;;;;59.95;6.40;;;;;;;;;;5102217;28;20047;-76
2023/01/26 05:54:24;;;;;;;81.18;7.70;;;;;;;;;;5099591;28;20132;-77
2023/01/26 05:56:52;;;;;;;80.65;8.65;;;;;;;;;;5102585;28;20129;-75
2023/01/26 05:59:18;;;;;;;64.93;5.80;;;;;;;;;;5101524;28;20090;-76
2023/01/26 06:01:44;;;;;;;57.40;6.55;;;;;;;;;;5099346;28;20039;-75
2023/01/26 06:04:10;;;;;;;55.00;6.68;;;;;;;;;;5092507;28;20159;-75
2023/01/26 06:06:36;;;;;;;83.90;7.88;;;;;;;;;;5098543;28;20118;-76
2023/01/26 06:09:03;;;;;;;60.22;7.63;;;;;;;;;;5099871;28;20047;-75
2023/01/26 06:11:30;;;;;;;75.47;8.82;;;;;;;;;;5099554;28;20039;-75
2023/01/26 06:13:57;;;;;;;54.08;6.57;;;;;;;;;;5098885;28;20047;-75
2023/01/26 06:16:23;;;;;;;71.22;8.52;;;;;;;;;;5100678;28;20036;-75
2023/01/26 06:18:49;;;;;;;64.43;6.75;;;;;;;;;;5101189;28;20127;-75
2023/01/26 06:21:16;;;;;;;59.80;7.88;;;;;;;;;;5105295;28;20134;-75
2023/01/26 06:23:42;;;;;;;66.28;7.68;;;;;;;;;;5105335;28;20054;-74
2023/01/26 06:26:08;;;;;;;69.20;6.90;;;;;;;;;;5095254;28;20048;-72
2023/01/26 06:28:35;;;;;;;54.40;7.28;;;;;;;;;;5105038;28;20043;-72
2023/01/26 06:31:01;;;;;;;63.33;7.95;;;;;;;;;;5102187;28;20499;-72
2023/01/26 06:33:27;;;;;;;59.83;7.25;;;;;;;;;;5107052;28;20047;-72
2023/01/26 06:35:54;;;;;;;80.93;9.10;;;;;;;;;;5111824;28;20043;-73
2023/01/26 06:38:21;;;;;;;68.53;6.80;;;;;;;;;;5107497;27;20048;-73
2023/01/26 06:40:47;;;;;;;58.67;6.78;;;;;;;;;;5107666;28;20283;-73
2023/01/26 06:43:13;;;;;;;67.20;7.15;;;;;;;;;;5110807;27;20055;-72
2023/01/26 06:45:41;;;;;;;58.28;6.43;;;;;;;;;;5094484;28;20060;-72
2023/01/26 06:48:07;;;;;;;61.40;5.95;;;;;;;;;;5111228;27;20039;-72
2023/01/26 06:50:35;;;;;;;57.72;6.50;;;;;;;;;;5109633;27;20039;-73
2023/01/26 06:53:03;;;;;;;62.72;9.15;;;;;;;;;;5112402;27;20444;-71
2023/01/26 06:55:37;;;;;;;79.28;8.60;;;;;;;;;;5109290;27;20059;-71
2023/01/26 06:58:03;;;;;;;56.67;6.95;;;;;;;;;;5111137;27;20059;-71
2023/01/26 07:00:29;;;;;;;58.47;6.28;;;;;;;;;;5090959;28;20044;-71
2023/01/26 07:02:55;;;;;;;41.97;6.00;;;;;;;;;;5109029;28;20367;-72
2023/01/26 07:05:21;;;;;;;43.85;5.53;;;;;;;;;;5093537;27;20364;-72
2023/01/26 07:07:48;;;;;;;47.13;6.05;;;;;;;;;;5111265;27;20051;-72
2023/01/26 07:10:14;;;;;;;53.10;5.78;;;;;;;;;;5109570;27;20048;-72
2023/01/26 07:12:41;;;;;;;62.10;8.55;;;;;;;;;;5093290;27;20122;-72
2023/01/26 07:15:07;;;;;;;54.83;6.45;;;;;;;;;;5111558;27;20066;-72
2023/01/26 07:17:33;;;;;;;55.72;7.20;;;;;;;;;;5091367;28;20131;-72
2023/01/26 07:20:00;;;;;;;49.22;6.78;;;;;;;;;;5109005;27;20039;-72
2023/01/26 07:22:26;;;;;;;50.30;5.38;;;;;;;;;;5109241;27;20099;-72
2023/01/26 07:24:52;;;;;;;50.22;5.25;;;;;;;;;;5108259;27;20475;-71
2023/01/26 07:27:18;;;;;;;42.97;5.30;;;;;;;;;;5107896;27;20040;-71
2023/01/26 07:29:45;;;;;;;50.40;4.57;;;;;;;;;;5112809;27;20147;-72
2023/01/26 07:32:11;;;;;;;49.22;4.80;;;;;;;;;;5108899;27;20047;-72
2023/01/26 07:34:37;;;;;;;43.22;4.50;;;;;;;;;;5108331;27;20043;-71
2023/01/26 07:37:04;;;;;;;55.53;5.80;;;;;;;;;;5108030;27;20036;-72
2023/01/26 07:39:30;;;;;;;41.47;4.85;;;;;;;;;;5092013;28;20040;-72
2023/01/26 07:41:57;;;;;;;55.80;5.68;;;;;;;;;;5090732;28;20648;-72
2023/01/26 07:44:23;;;;;;;59.63;7.60;;;;;;;;;;5092718;28;20063;-72
2023/01/26 07:46:49;;;;;;;47.20;5.55;;;;;;;;;;5087427;28;20044;-73
2023/01/26 07:49:15;;;;;;;49.15;4.40;;;;;;;;;;5088839;28;20697;-72
2023/01/26 07:51:41;;;;;;;47.08;5.28;;;;;;;;;;5069581;28;20060;-73
2023/01/26 07:54:10;;;;;;;45.97;5.15;;;;;;;;;;5068896;28;20071;-73
2023/01/26 07:56:36;;;;;;;45.28;4.63;;;;;;;;;;5070778;28;20352;-72
2023/01/26 07:59:02;;;;;;;41.33;5.28;;;;;;;;;;5069450;28;20043;-72
2023/01/26 08:01:29;;;;;;;42.83;4.72;;;;;;;;;;5071990;28;20048;-72
2023/01/26 08:03:55;;;;;;;41.50;5.72;;;;;;;;;;5089754;28;20123;-72
2023/01/26 08:06:21;;;;;;;55.42;7.50;;;;;;;;;;5089354;28;20048;-72
2023/01/26 08:08:50;;;;;;;51.78;5.35;;;;;;;;;;5090315;28;20036;-72
2023/01/26 08:11:17;;;;;;;36.05;4.93;;;;;;;;;;5085570;28;20036;-72
2023/01/26 08:13:44;;;;;;;45.45;5.03;;;;;;;;;;5089127;28;20048;-78
2023/01/26 08:16:11;;;;;;;42.83;6.00;;;;;;;;;;5069709;28;20051;-72
2023/01/26 08:18:37;;;;;;;44.53;6.63;;;;;;;;;;5087819;28;20477;-72
2023/01/26 08:21:04;;;;;;;46.33;5.50;;;;;;;;;;5068090;28;20040;-72
2023/01/26 08:23:30;;;;;;;47.03;6.28;;;;;;;;;;5069949;28;20048;-72
2023/01/26 08:26:03;;;;;;;34.78;5.05;;;;;;;;;;5091293;28;20048;-72
2023/01/26 08:28:29;;;;;;;46.13;5.87;;;;;;;;;;5087685;28;20058;-72
2023/01/26 08:30:56;;;;;;;51.58;6.13;;;;;;;;;;5069589;28;20441;-72
2023/01/26 08:33:23;;;;;;;44.33;5.90;;;;;;;;;;5089066;28;20040;-72
2023/01/26 08:35:49;;;;;;;43.00;6.72;;;;;;;;;;5087022;28;20048;-72
2023/01/26 08:38:15;;;;;;;43.42;5.60;;;;;;;;;;5073728;28;20088;-72
2023/01/26 08:40:41;;;;;;;44.78;4.85;;;;;;;;;;5071968;28;20048;-72
2023/01/26 08:43:07;;;;;;;51.65;5.43;;;;;;;;;;5052324;28;20130;-72
2023/01/26 08:45:34;;;;;;;38.30;4.55;;;;;;;;;;5089157;28;20462;-71
2023/01/26 08:48:00;;;;;;;50.28;6.03;;;;;;;;;;5068360;28;20052;-72
2023/01/26 08:50:26;;;;;;;37.55;5.07;;;;;;;;;;5089202;28;20406;-72
2023/01/26 08:52:55;;;;;;;44.90;6.07;;;;;;;;;;5089800;28;20040;-72
2023/01/26 08:55:21;;;;;;;54.85;6.68;;;;;;;;;;5089409;28;20047;-73
2023/01/26 08:57:51;;;;;;;42.10;4.53;;;;;;;;;;5069607;28;20043;-72
2023/01/26 09:00:17;;;;;;;43.42;6.05;;;;;;;;;;5089344;28;20036;-72
2023/01/26 09:02:43;;;;;;;30.58;4.18;;;;;;;;;;5087234;28;20043;-73
2023/01/26 09:05:09;;;;;;;43.20;4.63;;;;;;;;;;5071948;28;20418;-72
2023/01/26 09:07:36;;;;;;;37.55;4.45;;;;;;;;;;5088158;28;20032;-71
2023/01/26 09:10:02;;;;;;;51.35;5.55;;;;;;;;;;5069014;28;20109;-71
2023/01/26 09:12:28;;;;;;;48.58;6.35;;;;;;;;;;5069328;28;20048;-71
2023/01/26 09:14:54;;;;;;;51.63;6.78;;;;;;;;;;5068574;28;20059;-71
2023/01/26 09:17:20;;;;;;;53.45;5.85;;;;;;;;;;5070193;28;20047;-71
2023/01/26 09:19:46;;;;;;;47.72;5.43;;;;;;;;;;5069386;28;20403;-71
2023/01/26 09:22:12;;;;;;;45.03;5.60;;;;;;;;;;5069013;28;20434;-71
2023/01/26 09:24:39;;;;;;;37.85;4.60;;;;;;;;;;5086694;28;20032;-72
2023/01/26 09:27:05;;;;;;;51.30;5.38;;;;;;;;;;5068306;28;20050;-71
2023/01/26 09:29:31;;;;;;;39.35;5.38;;;;;;;;;;5086461;28;20522;-71
2023/01/26 09:31:57;;;;;;;46.38;6.03;;;;;;;;;;5065805;28;20048;-71
2023/01/26 09:34:24;;;;;;;49.00;6.05;;;;;;;;;;5071029;28;20392;-71
2023/01/26 09:36:50;;;;;;;44.17;5.32;;;;;;;;;;5085109;28;20040;-71
2023/01/26 09:39:16;;;;;;;46.40;4.70;;;;;;;;;;5086995;28;20040;-69
2023/01/26 09:41:48;;;;;;;56.35;7.78;;;;;;;;;;5083863;28;20100;-71
2023/01/26 09:44:19;;;;;;;36.33;5.45;;;;;;;;;;5101237;28;21359;-79
2023/01/26 09:46:51;;;;;;;38.88;5.05;;;;;;;;;;5107252;28;20032;-71
2023/01/26 09:49:21;;;;;;;38.88;5.32;;;;;;;;;;5104595;28;20487;-72
2023/01/26 09:51:50;;;;;;;32.65;4.28;;;;;;;;;;5104510;28;20040;-71
2023/01/26 09:54:24;;;;;;;34.67;4.00;;;;;;;;;;5102115;28;20659;-72
2023/01/26 09:56:50;;;;;;;43.03;5.43;;;;;;;;;;5106777;28;20081;-72
2023/01/26 09:59:30;;;;;;;40.13;4.40;;;;;;;;;;5107268;28;20040;-72
2023/01/26 10:01:56;;;;;;;31.85;4.45;;;;;;;;;;5105605;28;20054;-72
2023/01/26 10:04:24;;;;;;;33.38;5.53;;;;;;;;;;5097810;28;20074;-73
2023/01/26 10:06:52;;;;;;;29.55;4.78;;;;;;;;;;5105645;28;20497;-72
2023/01/26 10:09:22;;;;;;;31.02;4.75;;;;;;;;;;5108236;28;20044;-72
2023/01/26 10:11:50;;;;;;;32.13;4.13;;;;;;;;;;5109320;28;20046;-73
2023/01/26 10:14:20;;;;;;;34.90;4.20;;;;;;;;;;5105712;28;20089;-72
2023/01/26 10:16:48;;;;;;;37.42;4.15;;;;;;;;;;5107521;28;20127;-72
2023/01/26 10:19:22;;;;;;;44.53;5.95;;;;;;;;;;5105759;28;20048;-72
2023/01/26 10:21:48;;;;;;;;;;;;;;;;;;5106228;28;20047;-72
2023/01/26 10:24:16;;;;;;;25.50;4.78;;;;;;;;;;5105570;28;19931;-72
2023/01/26 10:26:43;;;;;;;35.65;4.63;;;;;;;;;;5077285;28;20464;-72
2023/01/26 10:29:14;;;;;;;29.80;3.83;;;;;;;;;;5103782;28;20083;-81
2023/01/26 10:31:40;;;;;;;20.33;4.68;;;;;;;;;;5104650;28;20043;-71
2023/01/26 10:34:07;;;;;;;29.77;3.17;;;;;;;;;;5108482;28;20487;-72
2023/01/26 10:36:33;;;;;;;27.75;3.58;;;;;;;;;;5091180;28;20047;-72
2023/01/26 10:39:06;;;;;;;18.38;2.95;;;;;;;;;;5093460;28;20039;-72
2023/01/26 10:41:32;;;;;;;31.60;3.30;;;;;;;;;;5108096;28;20436;-72
2023/01/26 10:44:01;;;;;;;31.83;4.00;;;;;;;;;;5104904;28;20047;-72
2023/01/26 10:46:29;;;;;;;28.42;3.92;;;;;;;;;;5100506;28;20375;-72
2023/01/26 10:48:56;;;;;;;23.00;2.97;;;;;;;;;;5101970;28;20052;-71
2023/01/26 10:51:24;;;;;;;24.20;3.10;;;;;;;;;;5104364;28;20114;-72
2023/01/26 10:53:50;;;;;;;37.95;5.25;;;;;;;;;;5102718;28;20192;-72
2023/01/26 10:56:17;;;;;;;33.22;4.03;;;;;;;;;;5108400;28;20036;-72
2023/01/26 10:58:44;;;;;;;25.08;4.00;;;;;;;;;;5103766;28;20465;-72
2023/01/26 11:01:13;;;;;;;20.02;2.72;;;;;;;;;;5106286;28;20043;-72
2023/01/26 11:03:39;;;;;;;25.52;3.78;;;;;;;;;;5103723;28;20043;-72
2023/01/26 11:06:06;;;;;;;27.38;4.00;;;;;;;;;;5104380;28;20177;-73
2023/01/26 11:08:37;;;;;;;29.23;3.58;;;;;;;;;;5104237;28;20603;-73
2023/01/26 11:11:03;;;;;;;25.50;3.80;;;;;;;;;;5105551;28;20139;-72
2023/01/26 11:13:30;;;;;;;32.10;4.25;;;;;;;;;;5109740;28;20085;-72
2023/01/26 11:15:56;;;;;;;27.40;3.45;;;;;;;;;;5111410;28;20054;-72
2023/01/26 11:18:27;;;;;;;31.13;4.40;;;;;;;;;;5099244;28;20043;-73
2023/01/26 11:20:58;;;;;;;30.77;5.38;;;;;;;;;;5105423;28;20111;-72
2023/01/26 11:23:33;;;;;;;23.45;3.88;;;;;;;;;;5105360;28;20044;-73
2023/01/26 11:26:15;;;;;;;37.65;4.35;;;;;;;;;;5109385;28;20050;-72
2023/01/26 11:28:42;;;;;;;39.85;6.85;;;;;;;;;;5103807;28;20047;-72
2023/01/26 11:31:18;;;;;;;37.85;5.28;;;;;;;;;;5105208;28;20434;-73
2023/01/26 11:33:55;;;;;;;28.20;4.45;;;;;;;;;;5107420;28;20048;-72
2023/01/26 11:36:27;;;;;;;30.85;4.70;;;;;;;;;;5108272;28;20494;-73
2023/01/26 11:39:01;;;;;;;25.15;3.50;;;;;;;;;;5098810;28;20044;-72
2023/01/26 11:41:27;;;;;;;;;;;;;;;;;;5106467;28;20395;-73
2023/01/26 11:44:01;;;;;;;22.40;3.33;;;;;;;;;;5105210;28;19927;-72
2023/01/26 11:46:44;;;;;;;18.00;3.40;;;;;;;;;;5108658;28;20040;-72
2023/01/26 11:49:25;;;;;;;25.75;3.00;;;;;;;;;;5107586;28;20043;-72
2023/01/26 11:51:51;;;;;;;21.50;3.95;;;;;;;;;;5104238;28;20042;-72
2023/01/26 11:54:24;;;;;;;16.40;3.13;;;;;;;;;;5107797;28;20039;-70
2023/01/26 11:56:50;;;;;;;20.90;3.17;;;;;;;;;;5106587;28;20047;-69
2023/01/26 11:59:21;;;;;;;21.27;2.97;;;;;;;;;;5110379;28;20050;-69
2023/01/26 12:01:56;;;;;;;13.50;2.53;;;;;;;;;;5098008;28;20061;-69
2023/01/26 12:04:22;;;;;;;23.63;5.03;;;;;;;;;;5109256;27;20097;-69
2023/01/26 12:06:52;;;;;;;18.83;3.90;;;;;;;;;;5106725;28;20081;-72
2023/01/26 12:09:23;;;;;;;18.52;2.60;;;;;;;;;;5111170;27;20129;-69
2023/01/26 12:11:55;;;;;;;16.45;2.85;;;;;;;;;;5100053;28;20165;-71
2023/01/26 12:14:31;;;;;;;16.95;2.72;;;;;;;;;;5114317;28;20046;-69
2023/01/26 12:16:57;;;;;;;18.05;2.20;;;;;;;;;;5104094;27;20047;-69
2023/01/26 12:19:43;;;;;;;12.93;2.35;;;;;;;;;;5111268;27;20505;-69
2023/01/26 12:22:15;;;;;;;20.27;2.63;;;;;;;;;;5097513;28;20060;-70
2023/01/26 12:24:43;;;;;;;12.68;2.85;;;;;;;;;;5099575;27;20557;-70
2023/01/26 12:27:14;;;;;;;12.23;2.20;;;;;;;;;;5078357;28;20054;-72
2023/01/26 12:29:47;;;;;;;16.23;3.15;;;;;;;;;;5099834;28;20147;-71
2023/01/26 12:32:15;;;;;;;13.30;2.08;;;;;;;;;;5106509;28;20080;-71
2023/01/26 12:34:41;;;;;;;20.50;2.33;;;;;;;;;;5096662;28;20048;-72
2023/01/26 12:37:26;;;;;;;21.23;3.33;;;;;;;;;;5106486;28;20164;-71
2023/01/26 12:40:05;;;;;;;13.57;2.15;;;;;;;;;;5101893;28;20568;-70
2023/01/26 12:42:31;;;;;;;15.77;3.13;;;;;;;;;;5104621;27;20538;-70
2023/01/26 12:45:00;;;;;;;22.27;2.67;;;;;;;;;;5107154;28;20048;-70
2023/01/26 12:47:39;;;;;;;18.95;3.42;;;;;;;;;;5094756;28;21507;-71
2023/01/26 12:50:12;;;;;;;18.77;3.92;;;;;;;;;;5098046;28;20047;-71
2023/01/26 12:52:38;;;;;;;14.32;2.72;;;;;;;;;;5108273;28;20040;-72
2023/01/26 12:55:10;;;;;;;18.20;2.92;;;;;;;;;;5097002;28;20332;-71
2023/01/26 12:57:42;;;;;;;14.55;2.47;;;;;;;;;;5102141;28;20074;-71
2023/01/26 13:00:19;;;;;;;12.10;2.03;;;;;;;;;;5097221;28;20131;-71
2023/01/26 13:02:47;;;;;;;17.50;3.53;;;;;;;;;;5105281;28;20062;-71
2023/01/26 13:05:25;;;;;;;19.40;2.78;;;;;;;;;;5106822;28;20040;-72
2023/01/26 13:07:51;;;;;;;16.77;2.58;;;;;;;;;;5100368;28;20048;-72
2023/01/26 13:10:18;;;;;;;18.38;3.13;;;;;;;;;;5106577;28;20131;-71
2023/01/26 13:12:53;;;;;;;18.95;3.15;;;;;;;;;;5107862;28;20040;-71
2023/01/26 13:15:20;;;;;;;17.00;2.33;;;;;;;;;;5105337;28;20047;-71
2023/01/26 13:17:49;;;;;;;21.23;2.42;;;;;;;;;;5104654;28;20039;-71
2023/01/26 13:20:22;;;;;;;22.48;3.38;;;;;;;;;;5105795;28;20518;-71
2023/01/26 13:22:49;;;;;;;15.25;2.70;;;;;;;;;;5104288;28;20043;-71
2023/01/26 13:25:24;;;;;;;18.55;2.97;;;;;;;;;;5105511;28;20112;-71
2023/01/26 13:27:59;;;;;;;18.38;2.80;;;;;;;;;;5104679;28;20136;-71
2023/01/26 13:30:26;;;;;;;17.98;2.33;;;;;;;;;;5103145;28;20575;-70
2023/01/26 13:32:54;;;;;;;13.05;2.35;;;;;;;;;;5105281;27;20528;-71
2023/01/26 13:35:22;;;;;;;19.80;2.45;;;;;;;;;;5100809;28;20051;-70
2023/01/26 13:37:54;;;;;;;9.85;1.98;;;;;;;;;;5103729;28;20188;-72
2023/01/26 13:40:24;;;;;;;10.02;1.65;;;;;;;;;;5091760;28;20128;-71
2023/01/26 13:42:54;;;;;;;13.32;2.67;;;;;;;;;;5101077;28;20068;-72
2023/01/26 13:45:28;;;;;;;11.60;1.73;;;;;;;;;;5101521;28;20050;-70
2023/01/26 13:47:55;;;;;;;15.52;2.38;;;;;;;;;;5104289;28;20039;-70
2023/01/26 13:50:22;;;;;;;16.60;1.80;;;;;;;;;;5104489;28;20460;-70
2023/01/26 13:52:49;;;;;;;15.05;2.17;;;;;;;;;;5108030;28;20556;-70
2023/01/26 13:55:24;;;;;;;16.33;2.03;;;;;;;;;;5106461;28;20415;-70
2023/01/26 13:58:09;;;;;;;15.15;2.47;;;;;;;;;;5105178;28;20502;-70
2023/01/26 14:00:35;;;;;;;16.80;2.92;;;;;;;;;;5104602;28;20516;-71
2023/01/26 14:03:02;;;;;;;16.92;2.33;;;;;;;;;;5100732;28;20162;-71
2023/01/26 14:05:30;;;;;;;15.45;2.17;;;;;;;;;;5096833;28;20566;-70
2023/01/26 14:07:57;;;;;;;15.25;2.42;;;;;;;;;;5098134;28;20044;-71
2023/01/26 14:10:23;;;;;;;17.88;2.83;;;;;;;;;;5105796;28;20513;-71
2023/01/26 14:12:51;;;;;;;18.63;2.08;;;;;;;;;;5100207;28;20040;-71
2023/01/26 14:15:22;;;;;;;16.42;2.67;;;;;;;;;;5106215;28;20047;-71
2023/01/26 14:17:50;;;;;;;20.00;4.00;;;;;;;;;;5098620;28;20048;-72
2023/01/26 14:20:25;;;;;;;14.45;2.30;;;;;;;;;;5103398;28;20043;-71
2023/01/26 14:23:03;;;;;;;21.83;3.17;;;;;;;;;;5097093;28;20071;-71
2023/01/26 14:25:29;;;;;;;18.08;2.78;;;;;;;;;;5102689;28;20043;-71
2023/01/26 14:27:55;;;;;;;27.85;4.10;;;;;;;;;;5103686;28;20055;-74
2023/01/26 14:30:24;;;;;;;26.25;3.75;;;;;;;;;;5101558;28;20130;-71
2023/01/26 14:32:55;;;;;;;22.90;2.72;;;;;;;;;;5103020;28;20352;-71
2023/01/26 14:35:22;;;;;;;26.58;2.70;;;;;;;;;;5104554;28;20490;-70
2023/01/26 14:37:49;;;;;;;20.63;2.55;;;;;;;;;;5106553;28;20044;-70
2023/01/26 14:40:20;;;;;;;24.92;3.03;;;;;;;;;;5105627;28;20112;-70
2023/01/26 14:42:48;;;;;;;23.75;2.92;;;;;;;;;;5104142;28;20514;-70
2023/01/26 14:45:14;;;;;;;28.75;4.22;;;;;;;;;;5104973;28;20410;-69
2023/01/26 14:47:41;;;;;;;23.48;3.72;;;;;;;;;;5098277;28;20675;-70
2023/01/26 14:50:16;;;;;;;18.42;2.92;;;;;;;;;;5104217;28;20126;-70
2023/01/26 14:52:44;;;;;;;14.82;2.40;;;;;;;;;;5106967;28;20040;-69
2023/01/26 14:55:20;;;;;;;17.98;2.60;;;;;;;;;;5107381;28;20122;-69
2023/01/26 14:57:46;;;;;;;15.77;2.42;;;;;;;;;;5094421;27;20047;-69
2023/01/26 15:00:19;;;;;;;23.55;3.13;;;;;;;;;;5106439;28;20040;-69
2023/01/26 15:02:47;;;;;;;17.93;2.87;;;;;;;;;;5106118;28;20086;-70
2023/01/26 15:05:16;;;;;;;23.42;3.42;;;;;;;;;;5105925;28;21103;-70
2023/01/26 15:07:44;;;;;;;17.65;4.47;;;;;;;;;;5103994;28;20043;-70
2023/01/26 15:10:31;;;;;;;22.33;3.25;;;;;;;;;;5100801;28;20258;-69
2023/01/26 15:13:06;;;;;;;28.80;3.88;;;;;;;;;;5098971;28;20082;-71
2023/01/26 15:15:34;;;;;;;19.52;3.20;;;;;;;;;;5096129;28;20039;-70